CDT,Max TemperatureF,Mean TemperatureF,Min TemperatureF,Max Dew PointF,MeanDew PointF,Min DewpointF,Max Humidity, Mean Humidity, Min Humidity, Max Sea Level PressureIn, Mean Sea Level PressureIn, Min Sea Level PressureIn, Max VisibilityMiles, Mean VisibilityMiles, Min VisibilityMiles, Max Wind SpeedMPH, Mean Wind SpeedMPH, Max Gust SpeedMPH,PrecipitationIn, CloudCover, Events, WindDirDegrees
2013-6-1,82,73,64,74,66,63,100,89,71,29.95,29.88,29.76,10,6,0,13,3,24,2.07,6,Fog-Rain-Thunderstorm,266
2013-6-2,79,69,59,64,60,56,100,84,48,30.00,29.97,29.94,10,5,0,12,1,,0.00,2,Fog,349
2013-6-3,81,68,55,64,58,53,93,72,45,30.04,29.98,29.91,10,10,7,5,1,,0.00,0,,87
2013-6-4,82,72,62,64,61,58,93,70,45,30.02,29.95,29.90,10,10,8,9,2,,0.00,0,,98
2013-6-5,84,74,63,67,64,61,93,76,51,29.99,29.89,29.80,10,10,7,10,1,18,0.00,0,,302
2013-6-6,80,72,66,65,63,59,90,70,56,29.91,29.86,29.81,10,10,10,8,4,,0.00,3,,338
2013-6-7,82,73,63,61,57,52,87,62,35,29.94,29.89,29.86,10,10,10,10,3,16,0.00,4,,326
2013-6-8,84,70,57,64,58,55,93,68,37,29.95,29.91,29.86,10,10,8,7,1,,0.00,1,,235
2013-6-9,87,76,64,69,64,58,90,73,37,29.91,29.86,29.81,10,10,9,8,1,,0.00,1,,254
2013-6-10,93,77,61,71,65,59,93,68,36,29.92,29.89,29.85,10,10,6,10,2,17,0.00,0,,278
2013-6-11,96,82,68,71,69,65,93,68,43,30.00,29.95,29.91,10,10,8,7,1,,0.00,0,,219
2013-6-12,95,83,73,73,71,69,93,69,44,30.01,29.95,29.89,10,10,10,12,3,21,0.00,0,,213
2013-6-13,96,83,71,74,71,67,94,70,48,29.98,29.93,29.87,10,8,2,13,3,21,0.00,0,,289
2013-6-14,90,80,71,69,67,64,90,67,46,30.04,29.98,29.93,10,10,10,6,2,,0.00,1,,100
2013-6-15,91,78,66,70,67,65,93,69,43,30.03,29.98,29.93,10,10,4,6,1,,0.00,0,,120
2013-6-16,91,82,73,77,71,67,94,81,55,30.05,29.97,29.89,10,8,2,9,2,,0.06,2,Rain,245
2013-6-17,84,78,71,72,70,67,97,85,55,29.97,29.90,29.84,10,7,2,10,2,,0.00,4,Rain,327
2013-6-18,88,78,69,70,67,65,97,74,48,30.00,29.95,29.88,10,10,8,7,2,,0.28,2,,24
2013-6-19,90,76,64,71,66,63,93,72,43,30.03,29.99,29.95,10,10,7,8,1,,0.00,0,,120
2013-6-20,91,80,68,71,69,65,93,70,47,30.08,30.03,29.99,10,8,3,5,1,,0.00,1,,150
2013-6-21,93,84,75,74,72,70,85,68,46,30.10,30.05,29.99,10,10,10,6,1,,0.00,2,,100
2013-6-22,93,82,73,74,71,67,93,69,49,30.07,30.02,29.96,10,10,6,8,2,,0.00,1,Rain-Thunderstorm,135
2013-6-23,93,82,71,73,70,67,93,68,44,30.03,29.98,29.93,10,10,5,6,1,,0.00,1,,220
2013-6-24,93,82,72,73,71,68,93,69,45,30.07,30.01,29.96,10,9,4,7,1,,0.00,1,,194
2013-6-25,91,82,73,73,71,68,91,68,47,30.02,29.95,29.87,10,10,9,9,2,,0.00,1,,202
2013-6-26,97,85,73,73,72,69,91,66,46,29.93,29.88,29.83,10,10,8,9,2,17,0.00,0,,223
2013-6-27,100,86,73,77,72,68,93,65,34,29.94,29.90,29.83,10,10,5,10,2,17,0.00,0,,290
2013-6-28,100,90,75,76,68,58,88,56,25,29.86,29.81,29.76,10,10,9,14,4,21,0.00,1,,334
2013-6-29,93,80,66,65,57,50,90,50,24,29.82,29.79,29.73,10,10,10,17,4,23,0.00,1,,325
2013-6-30,84,74,63,60,58,56,81,57,41,29.90,29.84,29.77,10,10,10,12,5,16,0.00,3,,347